sensor_id;sensor_type;location;lat;lon;timestamp;temperature;humidity
14749;DHT22;7466;53.574;9.976;2022-07-23T00:01:29;16.20;1.00
14749;DHT22;7466;53.574;9.976;2022-07-23T00:03:56;16.20;1.00
14749;DHT22;7466;53.574;9.976;2022-07-23T00:06:24;16.20;1.00
14749;DHT22;7466;53.574;9.976;2022-07-23T00:08:52;16.20;1.00
14749;DHT22;7466;53.574;9.976;2022-07-23T00:11:19;16.20;1.00
14749;DHT22;7466;53.574;9.976;2022-07-23T00:13:47;16.10;1.00
14749;DHT22;7466;53.574;9.976;2022-07-23T00:16:14;16.10;1.00
14749;DHT22;7466;53.574;9.976;2022-07-23T00:18:42;16.20;1.00
14749;DHT22;7466;53.574;9.976;2022-07-23T00:21:09;16.20;1.00
14749;DHT22;7466;53.574;9.976;2022-07-23T00:23:36;16.20;1.00
14749;DHT22;7466;53.574;9.976;2022-07-23T00:26:03;16.20;1.00
14749;DHT22;7466;53.574;9.976;2022-07-23T00:28:30;16.20;1.00
14749;DHT22;7466;53.574;9.976;2022-07-23T00:30:57;16.10;1.00
14749;DHT22;7466;53.574;9.976;2022-07-23T00:33:23;16.10;1.00
14749;DHT22;7466;53.574;9.976;2022-07-23T00:35:52;16.10;1.00
14749;DHT22;7466;53.574;9.976;2022-07-23T00:38:19;16.20;1.00
14749;DHT22;7466;53.574;9.976;2022-07-23T00:40:45;16.20;1.00
14749;DHT22;7466;53.574;9.976;2022-07-23T00:43:12;16.10;31.90
14749;DHT22;7466;53.574;9.976;2022-07-23T00:45:39;16.10;52.70
14749;DHT22;7466;53.574;9.976;2022-07-23T00:48:06;16.10;62.80
14749;DHT22;7466;53.574;9.976;2022-07-23T00:50:33;16.00;95.80
14749;DHT22;7466;53.574;9.976;2022-07-23T00:53:02;16.00;99.90
14749;DHT22;7466;53.574;9.976;2022-07-23T00:55:29;16.00;99.90
14749;DHT22;7466;53.574;9.976;2022-07-23T00:57:56;15.90;99.90
14749;DHT22;7466;53.574;9.976;2022-07-23T01:00:23;15.90;99.90
14749;DHT22;7466;53.574;9.976;2022-07-23T01:02:50;15.90;99.90
14749;DHT22;7466;53.574;9.976;2022-07-23T01:05:17;15.90;99.90
14749;DHT22;7466;53.574;9.976;2022-07-23T01:07:47;15.90;89.40
14749;DHT22;7466;53.574;9.976;2022-07-23T01:10:16;15.90;89.40
14749;DHT22;7466;53.574;9.976;2022-07-23T01:12:58;15.80;82.50
14749;DHT22;7466;53.574;9.976;2022-07-23T01:15:26;15.80;79.20
14749;DHT22;7466;53.574;9.976;2022-07-23T01:17:53;15.80;75.20
14749;DHT22;7466;53.574;9.976;2022-07-23T01:20:20;15.70;69.10
14749;DHT22;7466;53.574;9.976;2022-07-23T01:22:49;15.60;75.10
14749;DHT22;7466;53.574;9.976;2022-07-23T01:25:16;15.70;90.20
14749;DHT22;7466;53.574;9.976;2022-07-23T01:27:43;15.70;88.00
14749;DHT22;7466;53.574;9.976;2022-07-23T01:30:11;15.70;59.30
14749;DHT22;7466;53.574;9.976;2022-07-23T01:32:38;15.70;47.30
14749;DHT22;7466;53.574;9.976;2022-07-23T01:35:06;15.70;43.30
14749;DHT22;7466;53.574;9.976;2022-07-23T01:37:33;15.70;42.60
14749;DHT22;7466;53.574;9.976;2022-07-23T01:40:02;15.70;42.10
14749;DHT22;7466;53.574;9.976;2022-07-23T01:42:29;15.80;29.50
14749;DHT22;7466;53.574;9.976;2022-07-23T01:44:57;15.80;22.50
14749;DHT22;7466;53.574;9.976;2022-07-23T01:47:23;15.80;24.00
14749;DHT22;7466;53.574;9.976;2022-07-23T01:49:50;15.80;28.30
14749;DHT22;7466;53.574;9.976;2022-07-23T01:52:17;15.80;24.20
14749;DHT22;7466;53.574;9.976;2022-07-23T01:54:44;15.80;14.30
14749;DHT22;7466;53.574;9.976;2022-07-23T01:57:12;15.90;13.40
14749;DHT22;7466;53.574;9.976;2022-07-23T01:59:39;15.80;7.90
14749;DHT22;7466;53.574;9.976;2022-07-23T02:02:05;15.80;7.60
14749;DHT22;7466;53.574;9.976;2022-07-23T02:04:32;15.80;12.00
14749;DHT22;7466;53.574;9.976;2022-07-23T02:07:02;15.80;10.00
14749;DHT22;7466;53.574;9.976;2022-07-23T02:09:29;15.80;9.90
14749;DHT22;7466;53.574;9.976;2022-07-23T02:11:56;15.80;12.90
14749;DHT22;7466;53.574;9.976;2022-07-23T02:14:24;15.80;11.80
14749;DHT22;7466;53.574;9.976;2022-07-23T02:16:51;15.80;13.60
14749;DHT22;7466;53.574;9.976;2022-07-23T02:19:18;15.80;10.50
14749;DHT22;7466;53.574;9.976;2022-07-23T02:21:45;15.80;15.10
14749;DHT22;7466;53.574;9.976;2022-07-23T02:24:11;15.80;14.80
14749;DHT22;7466;53.574;9.976;2022-07-23T02:26:38;15.80;20.40
14749;DHT22;7466;53.574;9.976;2022-07-23T02:29:05;15.80;23.90
14749;DHT22;7466;53.574;9.976;2022-07-23T02:31:33;15.70;23.60
14749;DHT22;7466;53.574;9.976;2022-07-23T02:34:01;15.70;28.30
14749;DHT22;7466;53.574;9.976;2022-07-23T02:36:27;15.60;34.40
14749;DHT22;7466;53.574;9.976;2022-07-23T02:38:54;15.50;51.60
14749;DHT22;7466;53.574;9.976;2022-07-23T02:41:22;15.50;62.40
14749;DHT22;7466;53.574;9.976;2022-07-23T02:43:49;15.50;65.70
14749;DHT22;7466;53.574;9.976;2022-07-23T02:46:16;15.50;90.00
14749;DHT22;7466;53.574;9.976;2022-07-23T02:48:44;15.40;89.00
14749;DHT22;7466;53.574;9.976;2022-07-23T02:51:11;15.40;93.90
14749;DHT22;7466;53.574;9.976;2022-07-23T02:53:37;15.30;99.90
14749;DHT22;7466;53.574;9.976;2022-07-23T02:56:04;15.30;99.90
14749;DHT22;7466;53.574;9.976;2022-07-23T02:58:31;15.20;99.90
14749;DHT22;7466;53.574;9.976;2022-07-23T03:00:58;15.20;99.90
14749;DHT22;7466;53.574;9.976;2022-07-23T03:03:25;15.10;99.90
14749;DHT22;7466;53.574;9.976;2022-07-23T03:05:53;15.20;99.90
14749;DHT22;7466;53.574;9.976;2022-07-23T03:08:20;15.20;99.90
14749;DHT22;7466;53.574;9.976;2022-07-23T03:10:47;15.20;99.90
14749;DHT22;7466;53.574;9.976;2022-07-23T03:13:14;15.20;99.90
14749;DHT22;7466;53.574;9.976;2022-07-23T03:15:40;15.20;99.90
14749;DHT22;7466;53.574;9.976;2022-07-23T03:18:07;15.20;99.90
14749;DHT22;7466;53.574;9.976;2022-07-23T03:20:34;15.30;99.90
14749;DHT22;7466;53.574;9.976;2022-07-23T03:23:02;15.30;99.90
14749;DHT22;7466;53.574;9.976;2022-07-23T03:25:29;15.20;99.90
14749;DHT22;7466;53.574;9.976;2022-07-23T03:27:56;15.20;99.90
14749;DHT22;7466;53.574;9.976;2022-07-23T03:30:23;15.20;99.90
14749;DHT22;7466;53.574;9.976;2022-07-23T03:32:49;15.20;99.90
14749;DHT22;7466;53.574;9.976;2022-07-23T03:35:16;15.30;99.90
14749;DHT22;7466;53.574;9.976;2022-07-23T03:37:43;15.20;99.90
14749;DHT22;7466;53.574;9.976;2022-07-23T03:40:12;15.20;99.90
14749;DHT22;7466;53.574;9.976;2022-07-23T03:42:38;15.20;99.90
14749;DHT22;7466;53.574;9.976;2022-07-23T03:45:08;15.20;99.90
14749;DHT22;7466;53.574;9.976;2022-07-23T03:47:35;15.20;99.90
14749;DHT22;7466;53.574;9.976;2022-07-23T03:50:02;15.10;99.90
14749;DHT22;7466;53.574;9.976;2022-07-23T03:52:29;15.20;99.90
14749;DHT22;7466;53.574;9.976;2022-07-23T03:54:56;15.20;99.90
14749;DHT22;7466;53.574;9.976;2022-07-23T03:57:24;15.20;99.90
14749;DHT22;7466;53.574;9.976;2022-07-23T03:59:51;15.20;99.90
14749;DHT22;7466;53.574;9.976;2022-07-23T04:02:17;15.20;99.90
14749;DHT22;7466;53.574;9.976;2022-07-23T04:04:44;15.30;99.90
14749;DHT22;7466;53.574;9.976;2022-07-23T04:07:12;15.30;99.90
14749;DHT22;7466;53.574;9.976;2022-07-23T04:09:38;15.30;99.90
14749;DHT22;7466;53.574;9.976;2022-07-23T04:12:07;15.40;99.90
14749;DHT22;7466;53.574;9.976;2022-07-23T04:14:36;15.40;99.90
14749;DHT22;7466;53.574;9.976;2022-07-23T04:17:03;15.60;99.90
14749;DHT22;7466;53.574;9.976;2022-07-23T04:19:29;15.60;99.90
14749;DHT22;7466;53.574;9.976;2022-07-23T04:21:56;15.60;99.90
14749;DHT22;7466;53.574;9.976;2022-07-23T04:24:23;15.60;99.90
14749;DHT22;7466;53.574;9.976;2022-07-23T04:26:50;15.70;99.90
14749;DHT22;7466;53.574;9.976;2022-07-23T04:29:17;15.60;99.90
14749;DHT22;7466;53.574;9.976;2022-07-23T04:31:45;15.60;99.90
14749;DHT22;7466;53.574;9.976;2022-07-23T04:34:12;15.60;99.90
14749;DHT22;7466;53.574;9.976;2022-07-23T04:36:38;15.50;99.90
14749;DHT22;7466;53.574;9.976;2022-07-23T04:39:05;15.50;99.90
14749;DHT22;7466;53.574;9.976;2022-07-23T04:41:32;15.50;99.90
14749;DHT22;7466;53.574;9.976;2022-07-23T04:43:59;15.50;99.90
14749;DHT22;7466;53.574;9.976;2022-07-23T04:46:26;15.60;99.90
14749;DHT22;7466;53.574;9.976;2022-07-23T04:48:54;15.50;99.90
14749;DHT22;7466;53.574;9.976;2022-07-23T04:51:21;15.50;99.90
14749;DHT22;7466;53.574;9.976;2022-07-23T04:53:48;15.50;99.90
14749;DHT22;7466;53.574;9.976;2022-07-23T04:56:15;15.50;99.90
14749;DHT22;7466;53.574;9.976;2022-07-23T04:58:42;15.50;99.90
14749;DHT22;7466;53.574;9.976;2022-07-23T05:01:09;15.50;99.90
14749;DHT22;7466;53.574;9.976;2022-07-23T05:03:35;15.50;99.90
14749;DHT22;7466;53.574;9.976;2022-07-23T05:06:04;15.50;99.90
14749;DHT22;7466;53.574;9.976;2022-07-23T05:08:31;15.40;99.90
14749;DHT22;7466;53.574;9.976;2022-07-23T05:10:57;15.40;99.90
14749;DHT22;7466;53.574;9.976;2022-07-23T05:13:24;15.30;99.90
14749;DHT22;7466;53.574;9.976;2022-07-23T05:15:52;15.30;99.90
14749;DHT22;7466;53.574;9.976;2022-07-23T05:18:18;15.40;99.90
14749;DHT22;7466;53.574;9.976;2022-07-23T05:20:45;15.50;99.90
14749;DHT22;7466;53.574;9.976;2022-07-23T05:23:13;15.50;99.90
14749;DHT22;7466;53.574;9.976;2022-07-23T05:25:40;15.50;99.90
14749;DHT22;7466;53.574;9.976;2022-07-23T05:28:07;15.40;99.90
14749;DHT22;7466;53.574;9.976;2022-07-23T05:30:34;15.40;99.90
14749;DHT22;7466;53.574;9.976;2022-07-23T05:33:01;15.40;99.90
14749;DHT22;7466;53.574;9.976;2022-07-23T05:35:28;15.40;99.90
14749;DHT22;7466;53.574;9.976;2022-07-23T05:37:54;15.50;99.90
14749;DHT22;7466;53.574;9.976;2022-07-23T05:40:23;15.50;99.90
14749;DHT22;7466;53.574;9.976;2022-07-23T05:42:49;15.60;99.90
14749;DHT22;7466;53.574;9.976;2022-07-23T05:45:16;15.50;99.90
14749;DHT22;7466;53.574;9.976;2022-07-23T05:47:44;15.60;99.90
14749;DHT22;7466;53.574;9.976;2022-07-23T05:50:12;15.70;99.90
14749;DHT22;7466;53.574;9.976;2022-07-23T05:52:40;15.60;99.90
14749;DHT22;7466;53.574;9.976;2022-07-23T05:55:08;15.70;99.90
14749;DHT22;7466;53.574;9.976;2022-07-23T05:57:37;15.70;99.90
14749;DHT22;7466;53.574;9.976;2022-07-23T06:00:07;15.80;99.90
14749;DHT22;7466;53.574;9.976;2022-07-23T06:02:34;15.90;99.90
14749;DHT22;7466;53.574;9.976;2022-07-23T06:05:01;16.00;99.90
14749;DHT22;7466;53.574;9.976;2022-07-23T06:07:28;16.00;99.90
14749;DHT22;7466;53.574;9.976;2022-07-23T06:09:55;16.00;99.90
14749;DHT22;7466;53.574;9.976;2022-07-23T06:12:21;15.90;99.90
14749;DHT22;7466;53.574;9.976;2022-07-23T06:14:51;16.00;99.90
14749;DHT22;7466;53.574;9.976;2022-07-23T06:17:18;15.90;99.90
14749;DHT22;7466;53.574;9.976;2022-07-23T06:19:45;15.90;99.90
14749;DHT22;7466;53.574;9.976;2022-07-23T06:22:11;15.80;99.90
14749;DHT22;7466;53.574;9.976;2022-07-23T06:24:38;16.10;99.90
14749;DHT22;7466;53.574;9.976;2022-07-23T06:27:05;16.30;99.90
14749;DHT22;7466;53.574;9.976;2022-07-23T06:29:32;16.30;91.60
14749;DHT22;7466;53.574;9.976;2022-07-23T06:32:00;16.40;93.40
14749;DHT22;7466;53.574;9.976;2022-07-23T06:34:27;16.50;52.30
14749;DHT22;7466;53.574;9.976;2022-07-23T06:36:54;16.40;79.80
14749;DHT22;7466;53.574;9.976;2022-07-23T06:39:21;16.40;69.10
14749;DHT22;7466;53.574;9.976;2022-07-23T06:41:48;16.40;83.80
14749;DHT22;7466;53.574;9.976;2022-07-23T06:44:14;16.50;99.90
14749;DHT22;7466;53.574;9.976;2022-07-23T06:46:41;16.50;95.20
14749;DHT22;7466;53.574;9.976;2022-07-23T06:49:09;16.20;99.50
14749;DHT22;7466;53.574;9.976;2022-07-23T06:51:36;16.10;99.90
14749;DHT22;7466;53.574;9.976;2022-07-23T06:54:03;16.20;99.90
14749;DHT22;7466;53.574;9.976;2022-07-23T06:56:30;16.30;99.90
14749;DHT22;7466;53.574;9.976;2022-07-23T06:58:57;16.40;95.70
14749;DHT22;7466;53.574;9.976;2022-07-23T07:01:24;16.60;75.90
14749;DHT22;7466;53.574;9.976;2022-07-23T07:03:51;16.80;63.20
14749;DHT22;7466;53.574;9.976;2022-07-23T07:06:19;16.60;31.00
14749;DHT22;7466;53.574;9.976;2022-07-23T07:08:46;16.80;21.50
14749;DHT22;7466;53.574;9.976;2022-07-23T07:11:12;16.70;1.00
14749;DHT22;7466;53.574;9.976;2022-07-23T07:13:39;16.80;1.70
14749;DHT22;7466;53.574;9.976;2022-07-23T07:16:06;16.90;6.00
14749;DHT22;7466;53.574;9.976;2022-07-23T07:18:33;16.90;1.00
14749;DHT22;7466;53.574;9.976;2022-07-23T07:21:00;16.80;1.00
14749;DHT22;7466;53.574;9.976;2022-07-23T07:23:28;16.60;8.00
14749;DHT22;7466;53.574;9.976;2022-07-23T07:25:55;16.50;43.00
14749;DHT22;7466;53.574;9.976;2022-07-23T07:28:22;16.60;99.90
14749;DHT22;7466;53.574;9.976;2022-07-23T07:30:49;16.50;99.90
14749;DHT22;7466;53.574;9.976;2022-07-23T07:33:15;16.30;99.90
14749;DHT22;7466;53.574;9.976;2022-07-23T07:35:42;16.00;99.90
14749;DHT22;7466;53.574;9.976;2022-07-23T07:38:09;16.20;99.90
14749;DHT22;7466;53.574;9.976;2022-07-23T07:40:37;16.40;99.90
14749;DHT22;7466;53.574;9.976;2022-07-23T07:43:04;16.60;99.90
14749;DHT22;7466;53.574;9.976;2022-07-23T07:45:31;17.00;99.90
14749;DHT22;7466;53.574;9.976;2022-07-23T07:47:58;17.20;99.90
14749;DHT22;7466;53.574;9.976;2022-07-23T07:50:25;17.20;65.20
14749;DHT22;7466;53.574;9.976;2022-07-23T07:52:52;17.10;84.60
14749;DHT22;7466;53.574;9.976;2022-07-23T07:55:19;17.40;99.90
14749;DHT22;7466;53.574;9.976;2022-07-23T07:57:48;17.60;35.90
14749;DHT22;7466;53.574;9.976;2022-07-23T08:00:15;17.70;2.00
14749;DHT22;7466;53.574;9.976;2022-07-23T08:02:43;17.80;1.00
14749;DHT22;7466;53.574;9.976;2022-07-23T08:05:10;17.90;1.00
14749;DHT22;7466;53.574;9.976;2022-07-23T08:07:38;18.10;1.00
14749;DHT22;7466;53.574;9.976;2022-07-23T08:10:06;18.30;1.00
14749;DHT22;7466;53.574;9.976;2022-07-23T08:12:45;18.00;1.00
14749;DHT22;7466;53.574;9.976;2022-07-23T08:15:16;18.10;1.00
14749;DHT22;7466;53.574;9.976;2022-07-23T08:17:43;18.10;1.00
14749;DHT22;7466;53.574;9.976;2022-07-23T08:20:12;17.70;1.00
14749;DHT22;7466;53.574;9.976;2022-07-23T08:22:43;17.60;32.70
14749;DHT22;7466;53.574;9.976;2022-07-23T08:25:10;17.10;99.90
14749;DHT22;7466;53.574;9.976;2022-07-23T08:27:37;16.80;99.90
14749;DHT22;7466;53.574;9.976;2022-07-23T08:30:05;16.60;99.90
14749;DHT22;7466;53.574;9.976;2022-07-23T08:32:35;16.60;99.90
14749;DHT22;7466;53.574;9.976;2022-07-23T08:35:13;16.50;99.90
14749;DHT22;7466;53.574;9.976;2022-07-23T08:37:40;16.20;99.90
14749;DHT22;7466;53.574;9.976;2022-07-23T08:40:08;16.30;99.90
14749;DHT22;7466;53.574;9.976;2022-07-23T08:42:35;16.40;99.90
14749;DHT22;7466;53.574;9.976;2022-07-23T08:45:03;16.60;99.90
14749;DHT22;7466;53.574;9.976;2022-07-23T08:47:31;16.90;96.40
14749;DHT22;7466;53.574;9.976;2022-07-23T08:49:59;17.30;99.90
14749;DHT22;7466;53.574;9.976;2022-07-23T08:52:26;17.60;49.10
14749;DHT22;7466;53.574;9.976;2022-07-23T08:54:54;17.80;1.00
14749;DHT22;7466;53.574;9.976;2022-07-23T08:57:21;18.00;1.00
14749;DHT22;7466;53.574;9.976;2022-07-23T08:59:48;18.00;1.00
14749;DHT22;7466;53.574;9.976;2022-07-23T09:02:15;18.00;1.00
14749;DHT22;7466;53.574;9.976;2022-07-23T09:04:41;18.30;1.00
14749;DHT22;7466;53.574;9.976;2022-07-23T09:07:10;18.20;1.00
14749;DHT22;7466;53.574;9.976;2022-07-23T09:09:36;18.30;1.00
14749;DHT22;7466;53.574;9.976;2022-07-23T09:12:05;18.10;1.00
14749;DHT22;7466;53.574;9.976;2022-07-23T09:14:40;18.00;1.00
14749;DHT22;7466;53.574;9.976;2022-07-23T09:17:11;18.20;1.00
14749;DHT22;7466;53.574;9.976;2022-07-23T09:19:41;18.50;1.00
14749;DHT22;7466;53.574;9.976;2022-07-23T09:22:19;18.80;1.00
14749;DHT22;7466;53.574;9.976;2022-07-23T09:25:04;19.20;1.00
14749;DHT22;7466;53.574;9.976;2022-07-23T09:27:50;19.30;1.00
14749;DHT22;7466;53.574;9.976;2022-07-23T09:30:18;19.10;1.00
14749;DHT22;7466;53.574;9.976;2022-07-23T09:33:03;19.10;1.00
14749;DHT22;7466;53.574;9.976;2022-07-23T09:35:47;19.20;1.00
14749;DHT22;7466;53.574;9.976;2022-07-23T09:38:17;19.50;1.00
14749;DHT22;7466;53.574;9.976;2022-07-23T09:40:44;19.40;1.00
14749;DHT22;7466;53.574;9.976;2022-07-23T09:43:12;19.30;1.00
14749;DHT22;7466;53.574;9.976;2022-07-23T09:45:39;19.10;1.00
14749;DHT22;7466;53.574;9.976;2022-07-23T09:48:14;18.70;1.00
14749;DHT22;7466;53.574;9.976;2022-07-23T09:50:42;18.60;1.00
14749;DHT22;7466;53.574;9.976;2022-07-23T09:53:10;18.70;1.00
14749;DHT22;7466;53.574;9.976;2022-07-23T09:55:53;18.50;1.00
14749;DHT22;7466;53.574;9.976;2022-07-23T09:58:23;18.90;1.00
14749;DHT22;7466;53.574;9.976;2022-07-23T10:00:53;19.10;1.00
14749;DHT22;7466;53.574;9.976;2022-07-23T10:03:20;19.00;1.00
14749;DHT22;7466;53.574;9.976;2022-07-23T10:05:48;19.00;1.00
14749;DHT22;7466;53.574;9.976;2022-07-23T10:08:18;18.80;1.00
14749;DHT22;7466;53.574;9.976;2022-07-23T10:10:46;18.60;1.00
14749;DHT22;7466;53.574;9.976;2022-07-23T10:13:15;18.50;1.00
14749;DHT22;7466;53.574;9.976;2022-07-23T10:15:56;18.40;1.00
14749;DHT22;7466;53.574;9.976;2022-07-23T10:18:23;18.20;1.00
14749;DHT22;7466;53.574;9.976;2022-07-23T10:20:51;18.20;1.00
14749;DHT22;7466;53.574;9.976;2022-07-23T10:23:22;18.20;1.00
14749;DHT22;7466;53.574;9.976;2022-07-23T10:25:58;18.60;1.00
14749;DHT22;7466;53.574;9.976;2022-07-23T10:28:46;19.30;1.00
14749;DHT22;7466;53.574;9.976;2022-07-23T10:31:34;19.50;1.00
14749;DHT22;7466;53.574;9.976;2022-07-23T10:34:12;19.30;1.00
14749;DHT22;7466;53.574;9.976;2022-07-23T10:36:46;19.40;1.00
14749;DHT22;7466;53.574;9.976;2022-07-23T10:39:15;19.40;1.00
14749;DHT22;7466;53.574;9.976;2022-07-23T10:41:45;19.40;1.00
14749;DHT22;7466;53.574;9.976;2022-07-23T10:44:15;19.80;1.00
14749;DHT22;7466;53.574;9.976;2022-07-23T10:46:55;20.00;1.00
14749;DHT22;7466;53.574;9.976;2022-07-23T10:49:36;20.30;1.00
14749;DHT22;7466;53.574;9.976;2022-07-23T10:52:20;20.50;1.00
14749;DHT22;7466;53.574;9.976;2022-07-23T10:54:49;20.60;1.00
14749;DHT22;7466;53.574;9.976;2022-07-23T10:57:17;20.30;1.00
14749;DHT22;7466;53.574;9.976;2022-07-23T11:00:13;20.70;1.00
14749;DHT22;7466;53.574;9.976;2022-07-23T11:02:42;20.40;1.00
14749;DHT22;7466;53.574;9.976;2022-07-23T11:05:12;20.10;1.00
14749;DHT22;7466;53.574;9.976;2022-07-23T11:08:09;19.80;1.00
14749;DHT22;7466;53.574;9.976;2022-07-23T11:10:38;20.10;1.00
14749;DHT22;7466;53.574;9.976;2022-07-23T11:13:26;20.30;1.00
14749;DHT22;7466;53.574;9.976;2022-07-23T11:16:12;20.70;1.00
14749;DHT22;7466;53.574;9.976;2022-07-23T11:19:03;20.90;1.00
14749;DHT22;7466;53.574;9.976;2022-07-23T11:21:51;21.30;1.00
14749;DHT22;7466;53.574;9.976;2022-07-23T11:24:23;21.90;1.00
14749;DHT22;7466;53.574;9.976;2022-07-23T11:26:58;22.10;1.00
14749;DHT22;7466;53.574;9.976;2022-07-23T11:29:48;21.50;1.00
14749;DHT22;7466;53.574;9.976;2022-07-23T11:32:32;21.20;1.00
14749;DHT22;7466;53.574;9.976;2022-07-23T11:35:01;21.30;1.00
14749;DHT22;7466;53.574;9.976;2022-07-23T11:37:38;21.20;1.00
14749;DHT22;7466;53.574;9.976;2022-07-23T11:40:09;21.80;1.00
14749;DHT22;7466;53.574;9.976;2022-07-23T11:42:38;22.00;1.00
14749;DHT22;7466;53.574;9.976;2022-07-23T11:45:06;22.40;99.90
14749;DHT22;7466;53.574;9.976;2022-07-23T11:47:36;22.00;1.00
14749;DHT22;7466;53.574;9.976;2022-07-23T11:50:05;21.40;1.00
14749;DHT22;7466;53.574;9.976;2022-07-23T11:52:32;21.30;1.00
14749;DHT22;7466;53.574;9.976;2022-07-23T11:55:02;20.70;99.90
14749;DHT22;7466;53.574;9.976;2022-07-23T11:57:31;20.40;99.90
14749;DHT22;7466;53.574;9.976;2022-07-23T12:00:02;20.30;1.00
14749;DHT22;7466;53.574;9.976;2022-07-23T12:02:30;19.90;1.00
14749;DHT22;7466;53.574;9.976;2022-07-23T12:04:58;19.70;1.00
14749;DHT22;7466;53.574;9.976;2022-07-23T12:07:30;19.60;1.00
14749;DHT22;7466;53.574;9.976;2022-07-23T12:09:58;19.50;1.00
14749;DHT22;7466;53.574;9.976;2022-07-23T12:12:26;19.50;1.00
14749;DHT22;7466;53.574;9.976;2022-07-23T12:14:54;19.70;1.00
14749;DHT22;7466;53.574;9.976;2022-07-23T12:17:27;19.90;1.00
14749;DHT22;7466;53.574;9.976;2022-07-23T12:19:54;19.80;1.00
14749;DHT22;7466;53.574;9.976;2022-07-23T12:22:24;19.50;1.00
14749;DHT22;7466;53.574;9.976;2022-07-23T12:24:59;19.40;1.00
14749;DHT22;7466;53.574;9.976;2022-07-23T12:27:26;19.30;1.00
14749;DHT22;7466;53.574;9.976;2022-07-23T12:29:53;19.20;1.00
14749;DHT22;7466;53.574;9.976;2022-07-23T12:32:22;19.30;1.00
14749;DHT22;7466;53.574;9.976;2022-07-23T12:34:50;19.20;1.00
14749;DHT22;7466;53.574;9.976;2022-07-23T12:37:30;19.30;1.00
14749;DHT22;7466;53.574;9.976;2022-07-23T12:39:57;19.60;1.00
14749;DHT22;7466;53.574;9.976;2022-07-23T12:42:24;20.40;1.00
14749;DHT22;7466;53.574;9.976;2022-07-23T12:45:08;21.00;1.00
14749;DHT22;7466;53.574;9.976;2022-07-23T12:47:54;21.30;1.00
14749;DHT22;7466;53.574;9.976;2022-07-23T12:50:38;21.30;1.00
14749;DHT22;7466;53.574;9.976;2022-07-23T12:53:08;21.20;99.90
14749;DHT22;7466;53.574;9.976;2022-07-23T12:55:37;21.20;99.90
14749;DHT22;7466;53.574;9.976;2022-07-23T12:58:10;21.10;99.90
14749;DHT22;7466;53.574;9.976;2022-07-23T13:00:57;21.40;99.90
14749;DHT22;7466;53.574;9.976;2022-07-23T13:03:31;22.10;99.90
14749;DHT22;7466;53.574;9.976;2022-07-23T13:05:59;21.90;1.00
14749;DHT22;7466;53.574;9.976;2022-07-23T13:08:29;21.70;1.00
14749;DHT22;7466;53.574;9.976;2022-07-23T13:10:57;21.20;99.90
14749;DHT22;7466;53.574;9.976;2022-07-23T13:13:26;20.90;99.90
14749;DHT22;7466;53.574;9.976;2022-07-23T13:15:53;20.90;99.90
14749;DHT22;7466;53.574;9.976;2022-07-23T13:18:21;21.30;99.90
14749;DHT22;7466;53.574;9.976;2022-07-23T13:20:49;21.30;99.90
14749;DHT22;7466;53.574;9.976;2022-07-23T13:23:17;21.50;99.90
14749;DHT22;7466;53.574;9.976;2022-07-23T13:25:46;21.70;1.00
14749;DHT22;7466;53.574;9.976;2022-07-23T13:28:13;21.70;1.00
14749;DHT22;7466;53.574;9.976;2022-07-23T13:30:41;21.40;1.00
14749;DHT22;7466;53.574;9.976;2022-07-23T13:33:08;21.20;1.00
14749;DHT22;7466;53.574;9.976;2022-07-23T13:35:37;20.70;99.90
14749;DHT22;7466;53.574;9.976;2022-07-23T13:38:05;20.90;99.90
14749;DHT22;7466;53.574;9.976;2022-07-23T13:40:35;21.00;99.90
14749;DHT22;7466;53.574;9.976;2022-07-23T13:43:05;20.90;99.90
14749;DHT22;7466;53.574;9.976;2022-07-23T13:45:33;20.20;99.90
14749;DHT22;7466;53.574;9.976;2022-07-23T13:48:00;20.00;99.90
14749;DHT22;7466;53.574;9.976;2022-07-23T13:50:27;20.10;99.90
14749;DHT22;7466;53.574;9.976;2022-07-23T13:52:54;20.20;99.90
14749;DHT22;7466;53.574;9.976;2022-07-23T13:55:21;20.50;99.90
14749;DHT22;7466;53.574;9.976;2022-07-23T13:57:48;21.00;99.90
14749;DHT22;7466;53.574;9.976;2022-07-23T14:00:16;21.90;99.90
14749;DHT22;7466;53.574;9.976;2022-07-23T14:02:43;21.70;99.90
14749;DHT22;7466;53.574;9.976;2022-07-23T14:05:11;21.80;99.90
14749;DHT22;7466;53.574;9.976;2022-07-23T14:07:38;21.60;99.90
14749;DHT22;7466;53.574;9.976;2022-07-23T14:10:06;21.00;99.90
14749;DHT22;7466;53.574;9.976;2022-07-23T14:12:33;20.70;99.90
14749;DHT22;7466;53.574;9.976;2022-07-23T14:15:00;20.30;99.90
14749;DHT22;7466;53.574;9.976;2022-07-23T14:17:29;20.20;99.90
14749;DHT22;7466;53.574;9.976;2022-07-23T14:19:57;20.50;99.90
14749;DHT22;7466;53.574;9.976;2022-07-23T14:22:24;21.20;99.90
14749;DHT22;7466;53.574;9.976;2022-07-23T14:24:51;21.50;99.90
14749;DHT22;7466;53.574;9.976;2022-07-23T14:27:18;22.70;99.90
14749;DHT22;7466;53.574;9.976;2022-07-23T14:29:44;22.30;1.00
14749;DHT22;7466;53.574;9.976;2022-07-23T14:32:11;22.70;1.00
14749;DHT22;7466;53.574;9.976;2022-07-23T14:34:39;22.90;1.00
14749;DHT22;7466;53.574;9.976;2022-07-23T14:37:06;23.60;10.00
14749;DHT22;7466;53.574;9.976;2022-07-23T14:39:33;23.30;17.50
14749;DHT22;7466;53.574;9.976;2022-07-23T14:42:00;23.10;1.00
14749;DHT22;7466;53.574;9.976;2022-07-23T14:44:27;23.10;1.00
14749;DHT22;7466;53.574;9.976;2022-07-23T14:46:53;22.50;1.00
14749;DHT22;7466;53.574;9.976;2022-07-23T14:49:20;21.90;1.00
14749;DHT22;7466;53.574;9.976;2022-07-23T14:51:49;21.50;1.00
14749;DHT22;7466;53.574;9.976;2022-07-23T14:54:15;21.40;1.00
14749;DHT22;7466;53.574;9.976;2022-07-23T14:56:43;21.20;99.90
14749;DHT22;7466;53.574;9.976;2022-07-23T14:59:10;21.20;99.90
14749;DHT22;7466;53.574;9.976;2022-07-23T15:01:37;20.90;1.00
14749;DHT22;7466;53.574;9.976;2022-07-23T15:04:04;20.80;1.00
14749;DHT22;7466;53.574;9.976;2022-07-23T15:06:31;20.30;53.50
14749;DHT22;7466;53.574;9.976;2022-07-23T15:08:59;20.00;99.90
14749;DHT22;7466;53.574;9.976;2022-07-23T15:11:26;20.40;99.90
14749;DHT22;7466;53.574;9.976;2022-07-23T15:13:54;21.30;5.90
14749;DHT22;7466;53.574;9.976;2022-07-23T15:16:21;21.90;1.00
14749;DHT22;7466;53.574;9.976;2022-07-23T15:18:48;21.50;32.40
14749;DHT22;7466;53.574;9.976;2022-07-23T15:21:15;20.70;1.00
14749;DHT22;7466;53.574;9.976;2022-07-23T15:23:41;20.60;1.00
14749;DHT22;7466;53.574;9.976;2022-07-23T15:26:10;20.40;21.40
14749;DHT22;7466;53.574;9.976;2022-07-23T15:28:36;20.00;99.90
14749;DHT22;7466;53.574;9.976;2022-07-23T15:31:03;20.10;99.90
14749;DHT22;7466;53.574;9.976;2022-07-23T15:33:30;20.20;99.90
14749;DHT22;7466;53.574;9.976;2022-07-23T15:35:57;20.70;99.90
14749;DHT22;7466;53.574;9.976;2022-07-23T15:38:25;21.10;99.90
14749;DHT22;7466;53.574;9.976;2022-07-23T15:40:53;21.10;1.00
14749;DHT22;7466;53.574;9.976;2022-07-23T15:43:21;21.30;1.00
14749;DHT22;7466;53.574;9.976;2022-07-23T15:45:48;21.70;1.00
14749;DHT22;7466;53.574;9.976;2022-07-23T15:48:15;22.70;99.90
14749;DHT22;7466;53.574;9.976;2022-07-23T15:50:42;23.40;21.20
14749;DHT22;7466;53.574;9.976;2022-07-23T15:53:09;23.30;1.00
14749;DHT22;7466;53.574;9.976;2022-07-23T15:55:36;22.60;1.00
14749;DHT22;7466;53.574;9.976;2022-07-23T15:58:04;22.40;1.00
14749;DHT22;7466;53.574;9.976;2022-07-23T16:00:32;22.10;1.00
14749;DHT22;7466;53.574;9.976;2022-07-23T16:02:59;21.90;99.90